sensor_id;sensor_type;location;lat;lon;timestamp;P1;durP1;ratioP1;P2;durP2;ratioP2
74245;SDS011;62601;51.044;13.788;2022-11-20T00:02:02;26.08;;;14.48;;
74245;SDS011;62601;51.044;13.788;2022-11-20T00:04:23;22.15;;;13.35;;
74245;SDS011;62601;51.044;13.788;2022-11-20T00:06:45;32.47;;;15.50;;
74245;SDS011;62601;51.044;13.788;2022-11-20T00:09:09;25.98;;;14.90;;
74245;SDS011;62601;51.044;13.788;2022-11-20T00:11:31;24.08;;;13.65;;
74245;SDS011;62601;51.044;13.788;2022-11-20T00:13:55;25.88;;;13.50;;
74245;SDS011;62601;51.044;13.788;2022-11-20T00:16:17;24.15;;;14.07;;
74245;SDS011;62601;51.044;13.788;2022-11-20T00:18:39;26.27;;;13.82;;
74245;SDS011;62601;51.044;13.788;2022-11-20T00:21:07;23.02;;;13.43;;
74245;SDS011;62601;51.044;13.788;2022-11-20T00:23:27;21.85;;;12.70;;
74245;SDS011;62601;51.044;13.788;2022-11-20T00:25:49;27.00;;;14.25;;
74245;SDS011;62601;51.044;13.788;2022-11-20T00:28:10;23.25;;;13.77;;
74245;SDS011;62601;51.044;13.788;2022-11-20T00:30:31;28.08;;;13.68;;
74245;SDS011;62601;51.044;13.788;2022-11-20T00:32:52;24.98;;;14.02;;
74245;SDS011;62601;51.044;13.788;2022-11-20T00:35:14;26.20;;;14.10;;
74245;SDS011;62601;51.044;13.788;2022-11-20T00:37:35;23.98;;;13.25;;
74245;SDS011;62601;51.044;13.788;2022-11-20T00:40:00;27.00;;;14.40;;
74245;SDS011;62601;51.044;13.788;2022-11-20T00:42:21;22.05;;;12.30;;
74245;SDS011;62601;51.044;13.788;2022-11-20T00:44:42;25.70;;;14.50;;
74245;SDS011;62601;51.044;13.788;2022-11-20T00:47:04;25.65;;;13.35;;
74245;SDS011;62601;51.044;13.788;2022-11-20T00:49:25;22.45;;;13.48;;
74245;SDS011;62601;51.044;13.788;2022-11-20T00:51:46;23.25;;;13.20;;
74245;SDS011;62601;51.044;13.788;2022-11-20T00:54:06;24.42;;;13.23;;
74245;SDS011;62601;51.044;13.788;2022-11-20T00:56:28;22.70;;;12.95;;
74245;SDS011;62601;51.044;13.788;2022-11-20T00:58:49;21.48;;;11.80;;
74245;SDS011;62601;51.044;13.788;2022-11-20T01:01:22;21.38;;;11.30;;
74245;SDS011;62601;51.044;13.788;2022-11-20T01:03:45;20.73;;;12.48;;
74245;SDS011;62601;51.044;13.788;2022-11-20T01:06:11;21.33;;;11.18;;
74245;SDS011;62601;51.044;13.788;2022-11-20T01:08:33;19.88;;;11.93;;
74245;SDS011;62601;51.044;13.788;2022-11-20T01:10:58;20.20;;;11.20;;
74245;SDS011;62601;51.044;13.788;2022-11-20T01:13:22;18.48;;;11.15;;
74245;SDS011;62601;51.044;13.788;2022-11-20T01:15:44;19.17;;;10.25;;
74245;SDS011;62601;51.044;13.788;2022-11-20T01:18:05;20.70;;;12.02;;
74245;SDS011;62601;51.044;13.788;2022-11-20T01:20:27;22.25;;;12.70;;
74245;SDS011;62601;51.044;13.788;2022-11-20T01:22:48;19.17;;;11.57;;
74245;SDS011;62601;51.044;13.788;2022-11-20T01:25:09;17.77;;;10.63;;
74245;SDS011;62601;51.044;13.788;2022-11-20T01:27:29;21.08;;;11.77;;
74245;SDS011;62601;51.044;13.788;2022-11-20T01:29:51;19.40;;;11.75;;
74245;SDS011;62601;51.044;13.788;2022-11-20T01:32:12;18.83;;;10.70;;
74245;SDS011;62601;51.044;13.788;2022-11-20T01:34:33;19.95;;;12.07;;
74245;SDS011;62601;51.044;13.788;2022-11-20T01:36:55;19.30;;;11.50;;
74245;SDS011;62601;51.044;13.788;2022-11-20T01:39:17;20.92;;;11.52;;
74245;SDS011;62601;51.044;13.788;2022-11-20T01:41:40;21.27;;;10.98;;
74245;SDS011;62601;51.044;13.788;2022-11-20T01:44:02;22.15;;;12.02;;
74245;SDS011;62601;51.044;13.788;2022-11-20T01:46:24;21.65;;;11.05;;
74245;SDS011;62601;51.044;13.788;2022-11-20T01:48:49;20.40;;;11.30;;
74245;SDS011;62601;51.044;13.788;2022-11-20T01:53:39;19.05;;;10.40;;
74245;SDS011;62601;51.044;13.788;2022-11-20T01:56:00;22.77;;;12.05;;
74245;SDS011;62601;51.044;13.788;2022-11-20T01:58:23;21.17;;;10.32;;
74245;SDS011;62601;51.044;13.788;2022-11-20T02:00:55;20.98;;;11.25;;
74245;SDS011;62601;51.044;13.788;2022-11-20T02:03:16;19.27;;;11.07;;
74245;SDS011;62601;51.044;13.788;2022-11-20T02:08:17;19.80;;;10.88;;
74245;SDS011;62601;51.044;13.788;2022-11-20T02:10:40;19.15;;;11.32;;
74245;SDS011;62601;51.044;13.788;2022-11-20T02:13:02;19.65;;;11.68;;
74245;SDS011;62601;51.044;13.788;2022-11-20T02:15:23;22.83;;;11.95;;
74245;SDS011;62601;51.044;13.788;2022-11-20T02:17:44;20.85;;;11.02;;
74245;SDS011;62601;51.044;13.788;2022-11-20T02:20:06;18.40;;;10.82;;
74245;SDS011;62601;51.044;13.788;2022-11-20T02:22:31;22.65;;;12.95;;
74245;SDS011;62601;51.044;13.788;2022-11-20T02:24:52;19.83;;;10.43;;
74245;SDS011;62601;51.044;13.788;2022-11-20T02:27:14;17.60;;;10.52;;
74245;SDS011;62601;51.044;13.788;2022-11-20T02:32:23;18.85;;;11.88;;
74245;SDS011;62601;51.044;13.788;2022-11-20T02:34:44;20.10;;;10.10;;
74245;SDS011;62601;51.044;13.788;2022-11-20T02:37:05;18.50;;;10.13;;
74245;SDS011;62601;51.044;13.788;2022-11-20T02:39:27;19.23;;;10.68;;
74245;SDS011;62601;51.044;13.788;2022-11-20T02:41:48;20.70;;;11.40;;
74245;SDS011;62601;51.044;13.788;2022-11-20T02:44:08;18.00;;;10.23;;
74245;SDS011;62601;51.044;13.788;2022-11-20T02:46:30;22.13;;;11.15;;
74245;SDS011;62601;51.044;13.788;2022-11-20T02:48:51;19.38;;;10.75;;
74245;SDS011;62601;51.044;13.788;2022-11-20T02:51:12;19.73;;;11.25;;
74245;SDS011;62601;51.044;13.788;2022-11-20T02:53:34;19.35;;;11.20;;
74245;SDS011;62601;51.044;13.788;2022-11-20T02:55:54;17.58;;;9.90;;
74245;SDS011;62601;51.044;13.788;2022-11-20T02:58:14;18.58;;;10.57;;
74245;SDS011;62601;51.044;13.788;2022-11-20T03:00:35;22.15;;;10.98;;
74245;SDS011;62601;51.044;13.788;2022-11-20T03:02:56;20.77;;;10.40;;
74245;SDS011;62601;51.044;13.788;2022-11-20T03:05:17;19.98;;;10.75;;
74245;SDS011;62601;51.044;13.788;2022-11-20T03:07:38;17.83;;;11.40;;
74245;SDS011;62601;51.044;13.788;2022-11-20T03:09:59;18.70;;;10.95;;
74245;SDS011;62601;51.044;13.788;2022-11-20T03:12:19;22.75;;;10.57;;
74245;SDS011;62601;51.044;13.788;2022-11-20T03:14:41;19.08;;;10.52;;
74245;SDS011;62601;51.044;13.788;2022-11-20T03:17:02;23.70;;;11.73;;
74245;SDS011;62601;51.044;13.788;2022-11-20T03:19:23;23.27;;;11.60;;
74245;SDS011;62601;51.044;13.788;2022-11-20T03:21:43;26.25;;;11.48;;
74245;SDS011;62601;51.044;13.788;2022-11-20T03:24:05;23.05;;;12.07;;
74245;SDS011;62601;51.044;13.788;2022-11-20T03:26:27;20.17;;;10.48;;
74245;SDS011;62601;51.044;13.788;2022-11-20T03:28:48;19.30;;;10.75;;
74245;SDS011;62601;51.044;13.788;2022-11-20T03:31:11;21.88;;;10.95;;
74245;SDS011;62601;51.044;13.788;2022-11-20T03:33:33;19.30;;;11.27;;
74245;SDS011;62601;51.044;13.788;2022-11-20T03:35:54;19.77;;;10.68;;
74245;SDS011;62601;51.044;13.788;2022-11-20T03:38:14;20.02;;;11.30;;
74245;SDS011;62601;51.044;13.788;2022-11-20T03:40:36;16.77;;;10.40;;
74245;SDS011;62601;51.044;13.788;2022-11-20T03:42:57;18.98;;;10.35;;
74245;SDS011;62601;51.044;13.788;2022-11-20T03:45:19;21.75;;;10.60;;
74245;SDS011;62601;51.044;13.788;2022-11-20T03:47:40;20.40;;;10.48;;
74245;SDS011;62601;51.044;13.788;2022-11-20T03:50:02;20.70;;;10.18;;
74245;SDS011;62601;51.044;13.788;2022-11-20T03:52:22;16.83;;;9.13;;
74245;SDS011;62601;51.044;13.788;2022-11-20T03:54:44;15.35;;;9.50;;
74245;SDS011;62601;51.044;13.788;2022-11-20T03:57:05;16.20;;;8.55;;
74245;SDS011;62601;51.044;13.788;2022-11-20T03:59:25;17.58;;;10.55;;
74245;SDS011;62601;51.044;13.788;2022-11-20T04:01:46;17.67;;;9.52;;
74245;SDS011;62601;51.044;13.788;2022-11-20T04:04:06;15.45;;;9.15;;
74245;SDS011;62601;51.044;13.788;2022-11-20T04:06:29;15.20;;;8.32;;
74245;SDS011;62601;51.044;13.788;2022-11-20T04:08:50;15.27;;;8.10;;
74245;SDS011;62601;51.044;13.788;2022-11-20T04:11:11;15.90;;;9.50;;
74245;SDS011;62601;51.044;13.788;2022-11-20T04:13:32;15.45;;;9.00;;
74245;SDS011;62601;51.044;13.788;2022-11-20T04:15:56;20.48;;;9.23;;
74245;SDS011;62601;51.044;13.788;2022-11-20T04:18:21;20.35;;;8.57;;
74245;SDS011;62601;51.044;13.788;2022-11-20T04:20:42;15.35;;;8.82;;
74245;SDS011;62601;51.044;13.788;2022-11-20T04:23:03;17.20;;;8.25;;
74245;SDS011;62601;51.044;13.788;2022-11-20T04:25:25;20.77;;;9.80;;
74245;SDS011;62601;51.044;13.788;2022-11-20T04:27:46;16.25;;;9.30;;
74245;SDS011;62601;51.044;13.788;2022-11-20T04:30:08;16.92;;;10.10;;
74245;SDS011;62601;51.044;13.788;2022-11-20T04:32:28;16.85;;;9.05;;
74245;SDS011;62601;51.044;13.788;2022-11-20T04:34:50;17.55;;;9.60;;
74245;SDS011;62601;51.044;13.788;2022-11-20T04:37:11;18.88;;;9.85;;
74245;SDS011;62601;51.044;13.788;2022-11-20T04:39:31;17.40;;;8.80;;
74245;SDS011;62601;51.044;13.788;2022-11-20T04:41:51;17.83;;;9.45;;
74245;SDS011;62601;51.044;13.788;2022-11-20T04:44:13;16.38;;;10.40;;
74245;SDS011;62601;51.044;13.788;2022-11-20T04:46:37;16.75;;;10.05;;
74245;SDS011;62601;51.044;13.788;2022-11-20T04:48:59;17.02;;;9.63;;
74245;SDS011;62601;51.044;13.788;2022-11-20T04:51:21;17.95;;;9.80;;
74245;SDS011;62601;51.044;13.788;2022-11-20T04:53:42;19.30;;;10.23;;
74245;SDS011;62601;51.044;13.788;2022-11-20T04:56:05;15.73;;;8.80;;
74245;SDS011;62601;51.044;13.788;2022-11-20T04:58:25;17.52;;;10.45;;
74245;SDS011;62601;51.044;13.788;2022-11-20T05:00:45;19.55;;;10.23;;
74245;SDS011;62601;51.044;13.788;2022-11-20T05:03:05;16.77;;;9.40;;
74245;SDS011;62601;51.044;13.788;2022-11-20T05:05:27;20.20;;;9.57;;
74245;SDS011;62601;51.044;13.788;2022-11-20T05:07:47;17.73;;;9.25;;
74245;SDS011;62601;51.044;13.788;2022-11-20T05:10:07;19.05;;;9.60;;
74245;SDS011;62601;51.044;13.788;2022-11-20T05:12:28;20.33;;;10.25;;
74245;SDS011;62601;51.044;13.788;2022-11-20T05:14:49;19.35;;;10.43;;
74245;SDS011;62601;51.044;13.788;2022-11-20T05:17:11;17.13;;;9.45;;
74245;SDS011;62601;51.044;13.788;2022-11-20T05:19:35;16.00;;;9.27;;
74245;SDS011;62601;51.044;13.788;2022-11-20T05:21:57;18.08;;;9.60;;
74245;SDS011;62601;51.044;13.788;2022-11-20T05:24:18;22.75;;;10.65;;
74245;SDS011;62601;51.044;13.788;2022-11-20T05:26:40;16.92;;;9.23;;
74245;SDS011;62601;51.044;13.788;2022-11-20T05:29:01;18.50;;;10.07;;
74245;SDS011;62601;51.044;13.788;2022-11-20T05:31:22;19.35;;;10.20;;
74245;SDS011;62601;51.044;13.788;2022-11-20T05:33:43;18.88;;;11.15;;
74245;SDS011;62601;51.044;13.788;2022-11-20T05:36:04;20.55;;;10.40;;
74245;SDS011;62601;51.044;13.788;2022-11-20T05:38:25;19.08;;;9.75;;
74245;SDS011;62601;51.044;13.788;2022-11-20T05:40:46;21.33;;;10.80;;
74245;SDS011;62601;51.044;13.788;2022-11-20T05:43:06;20.65;;;9.95;;
74245;SDS011;62601;51.044;13.788;2022-11-20T05:45:28;21.23;;;10.60;;
74245;SDS011;62601;51.044;13.788;2022-11-20T05:47:49;19.48;;;9.77;;
74245;SDS011;62601;51.044;13.788;2022-11-20T05:50:11;21.42;;;10.98;;
74245;SDS011;62601;51.044;13.788;2022-11-20T05:52:32;18.65;;;9.48;;
74245;SDS011;62601;51.044;13.788;2022-11-20T05:54:53;19.35;;;11.02;;
74245;SDS011;62601;51.044;13.788;2022-11-20T05:57:15;19.45;;;9.50;;
74245;SDS011;62601;51.044;13.788;2022-11-20T05:59:37;17.05;;;9.80;;
74245;SDS011;62601;51.044;13.788;2022-11-20T06:01:57;18.27;;;9.50;;
74245;SDS011;62601;51.044;13.788;2022-11-20T06:04:19;18.02;;;8.98;;
74245;SDS011;62601;51.044;13.788;2022-11-20T06:06:40;15.82;;;9.32;;
74245;SDS011;62601;51.044;13.788;2022-11-20T06:09:00;19.90;;;9.88;;
74245;SDS011;62601;51.044;13.788;2022-11-20T06:11:21;19.30;;;9.85;;
74245;SDS011;62601;51.044;13.788;2022-11-20T06:13:43;15.82;;;8.85;;
74245;SDS011;62601;51.044;13.788;2022-11-20T06:16:04;17.15;;;8.55;;
74245;SDS011;62601;51.044;13.788;2022-11-20T06:18:26;15.00;;;8.73;;
74245;SDS011;62601;51.044;13.788;2022-11-20T06:20:47;16.30;;;8.10;;
74245;SDS011;62601;51.044;13.788;2022-11-20T06:23:09;17.60;;;9.30;;
74245;SDS011;62601;51.044;13.788;2022-11-20T06:25:29;16.05;;;8.77;;
74245;SDS011;62601;51.044;13.788;2022-11-20T06:27:50;20.63;;;10.55;;
74245;SDS011;62601;51.044;13.788;2022-11-20T06:30:12;16.60;;;8.70;;
74245;SDS011;62601;51.044;13.788;2022-11-20T06:32:33;17.10;;;9.02;;
74245;SDS011;62601;51.044;13.788;2022-11-20T06:34:54;17.92;;;8.70;;
74245;SDS011;62601;51.044;13.788;2022-11-20T06:37:14;17.08;;;10.40;;
74245;SDS011;62601;51.044;13.788;2022-11-20T06:39:36;16.42;;;8.63;;
74245;SDS011;62601;51.044;13.788;2022-11-20T06:41:57;17.95;;;9.93;;
74245;SDS011;62601;51.044;13.788;2022-11-20T06:44:18;20.05;;;9.52;;
74245;SDS011;62601;51.044;13.788;2022-11-20T06:46:40;17.13;;;8.60;;
74245;SDS011;62601;51.044;13.788;2022-11-20T06:49:01;18.63;;;9.73;;
74245;SDS011;62601;51.044;13.788;2022-11-20T06:51:22;17.23;;;9.18;;
74245;SDS011;62601;51.044;13.788;2022-11-20T06:53:43;18.50;;;9.80;;
74245;SDS011;62601;51.044;13.788;2022-11-20T06:56:03;21.08;;;9.90;;
74245;SDS011;62601;51.044;13.788;2022-11-20T06:58:28;16.92;;;9.82;;
74245;SDS011;62601;51.044;13.788;2022-11-20T07:00:50;21.23;;;10.52;;
74245;SDS011;62601;51.044;13.788;2022-11-20T07:03:10;21.17;;;11.05;;
74245;SDS011;62601;51.044;13.788;2022-11-20T07:05:32;21.77;;;11.20;;
74245;SDS011;62601;51.044;13.788;2022-11-20T07:07:55;18.13;;;9.70;;
74245;SDS011;62601;51.044;13.788;2022-11-20T07:10:16;20.55;;;10.27;;
74245;SDS011;62601;51.044;13.788;2022-11-20T07:12:37;23.52;;;10.10;;
74245;SDS011;62601;51.044;13.788;2022-11-20T07:14:58;17.33;;;9.10;;
74245;SDS011;62601;51.044;13.788;2022-11-20T07:17:19;20.25;;;10.00;;
74245;SDS011;62601;51.044;13.788;2022-11-20T07:19:41;19.80;;;9.90;;
74245;SDS011;62601;51.044;13.788;2022-11-20T07:22:05;21.48;;;10.20;;
74245;SDS011;62601;51.044;13.788;2022-11-20T07:24:26;18.55;;;10.68;;
74245;SDS011;62601;51.044;13.788;2022-11-20T07:26:47;19.20;;;9.90;;
74245;SDS011;62601;51.044;13.788;2022-11-20T07:29:09;20.55;;;10.23;;
74245;SDS011;62601;51.044;13.788;2022-11-20T07:31:30;21.58;;;11.43;;
74245;SDS011;62601;51.044;13.788;2022-11-20T07:33:50;23.98;;;10.73;;
74245;SDS011;62601;51.044;13.788;2022-11-20T07:36:12;24.15;;;12.00;;
74245;SDS011;62601;51.044;13.788;2022-11-20T07:38:33;19.38;;;11.13;;
74245;SDS011;62601;51.044;13.788;2022-11-20T07:40:55;25.70;;;14.00;;
74245;SDS011;62601;51.044;13.788;2022-11-20T07:43:16;25.58;;;12.20;;
74245;SDS011;62601;51.044;13.788;2022-11-20T07:45:37;26.50;;;12.93;;
74245;SDS011;62601;51.044;13.788;2022-11-20T07:47:58;30.45;;;16.10;;
74245;SDS011;62601;51.044;13.788;2022-11-20T07:50:20;27.05;;;13.00;;
74245;SDS011;62601;51.044;13.788;2022-11-20T07:52:41;29.92;;;12.88;;
74245;SDS011;62601;51.044;13.788;2022-11-20T07:55:03;28.08;;;13.05;;
74245;SDS011;62601;51.044;13.788;2022-11-20T07:57:24;27.80;;;12.93;;
74245;SDS011;62601;51.044;13.788;2022-11-20T07:59:44;26.08;;;13.88;;
74245;SDS011;62601;51.044;13.788;2022-11-20T08:02:04;25.35;;;13.88;;
74245;SDS011;62601;51.044;13.788;2022-11-20T08:04:25;31.50;;;14.25;;
74245;SDS011;62601;51.044;13.788;2022-11-20T08:06:46;27.08;;;14.93;;
74245;SDS011;62601;51.044;13.788;2022-11-20T08:09:08;24.30;;;13.38;;
74245;SDS011;62601;51.044;13.788;2022-11-20T08:11:28;26.30;;;13.65;;
74245;SDS011;62601;51.044;13.788;2022-11-20T08:13:50;26.90;;;14.00;;
74245;SDS011;62601;51.044;13.788;2022-11-20T08:16:11;34.08;;;15.18;;
74245;SDS011;62601;51.044;13.788;2022-11-20T08:18:32;30.88;;;14.80;;
74245;SDS011;62601;51.044;13.788;2022-11-20T08:20:53;29.55;;;14.57;;
74245;SDS011;62601;51.044;13.788;2022-11-20T08:23:14;31.25;;;15.60;;
74245;SDS011;62601;51.044;13.788;2022-11-20T08:25:35;28.30;;;14.90;;
74245;SDS011;62601;51.044;13.788;2022-11-20T08:28:04;28.73;;;15.88;;
74245;SDS011;62601;51.044;13.788;2022-11-20T08:30:26;27.27;;;15.02;;
74245;SDS011;62601;51.044;13.788;2022-11-20T08:32:46;28.80;;;14.73;;
74245;SDS011;62601;51.044;13.788;2022-11-20T08:35:08;31.73;;;16.10;;
74245;SDS011;62601;51.044;13.788;2022-11-20T08:37:28;31.17;;;15.85;;
74245;SDS011;62601;51.044;13.788;2022-11-20T08:39:49;37.15;;;16.55;;
74245;SDS011;62601;51.044;13.788;2022-11-20T08:42:10;36.63;;;17.20;;
74245;SDS011;62601;51.044;13.788;2022-11-20T08:44:32;34.10;;;16.98;;
74245;SDS011;62601;51.044;13.788;2022-11-20T08:46:52;31.00;;;15.35;;
74245;SDS011;62601;51.044;13.788;2022-11-20T08:49:13;29.85;;;17.23;;
74245;SDS011;62601;51.044;13.788;2022-11-20T08:51:35;28.63;;;15.50;;
74245;SDS011;62601;51.044;13.788;2022-11-20T08:53:57;34.85;;;16.35;;
74245;SDS011;62601;51.044;13.788;2022-11-20T08:56:18;30.35;;;16.75;;
74245;SDS011;62601;51.044;13.788;2022-11-20T08:58:39;33.17;;;15.75;;
74245;SDS011;62601;51.044;13.788;2022-11-20T09:01:04;32.38;;;16.60;;
74245;SDS011;62601;51.044;13.788;2022-11-20T09:03:25;28.52;;;15.52;;
74245;SDS011;62601;51.044;13.788;2022-11-20T09:05:46;27.08;;;15.38;;
74245;SDS011;62601;51.044;13.788;2022-11-20T09:08:08;29.73;;;15.93;;
74245;SDS011;62601;51.044;13.788;2022-11-20T09:10:29;27.42;;;15.10;;
74245;SDS011;62601;51.044;13.788;2022-11-20T09:12:51;29.05;;;14.18;;
74245;SDS011;62601;51.044;13.788;2022-11-20T09:15:13;25.10;;;13.80;;
74245;SDS011;62601;51.044;13.788;2022-11-20T09:17:34;27.27;;;14.40;;
74245;SDS011;62601;51.044;13.788;2022-11-20T09:19:55;25.90;;;13.88;;
74245;SDS011;62601;51.044;13.788;2022-11-20T09:22:17;23.05;;;13.00;;
74245;SDS011;62601;51.044;13.788;2022-11-20T09:24:38;21.45;;;12.90;;
74245;SDS011;62601;51.044;13.788;2022-11-20T09:27:03;29.17;;;14.38;;
74245;SDS011;62601;51.044;13.788;2022-11-20T09:29:24;27.73;;;13.85;;
74245;SDS011;62601;51.044;13.788;2022-11-20T09:31:45;24.65;;;12.95;;
74245;SDS011;62601;51.044;13.788;2022-11-20T09:34:07;30.35;;;15.00;;
74245;SDS011;62601;51.044;13.788;2022-11-20T09:36:28;25.67;;;14.15;;
74245;SDS011;62601;51.044;13.788;2022-11-20T09:38:50;25.65;;;14.52;;
74245;SDS011;62601;51.044;13.788;2022-11-20T09:41:36;26.45;;;14.18;;
74245;SDS011;62601;51.044;13.788;2022-11-20T09:43:58;26.63;;;14.50;;
74245;SDS011;62601;51.044;13.788;2022-11-20T09:54:17;24.83;;;12.90;;
74245;SDS011;62601;51.044;13.788;2022-11-20T09:56:40;22.35;;;12.45;;
74245;SDS011;62601;51.044;13.788;2022-11-20T09:59:04;27.65;;;14.30;;
74245;SDS011;62601;51.044;13.788;2022-11-20T10:01:33;20.65;;;11.07;;
74245;SDS011;62601;51.044;13.788;2022-11-20T10:04:15;24.42;;;12.93;;
74245;SDS011;62601;51.044;13.788;2022-11-20T10:09:25;23.77;;;12.82;;
74245;SDS011;62601;51.044;13.788;2022-11-20T10:12:09;19.50;;;11.70;;
74245;SDS011;62601;51.044;13.788;2022-11-20T10:17:09;24.55;;;12.73;;
74245;SDS011;62601;51.044;13.788;2022-11-20T10:24:53;22.27;;;12.48;;
74245;SDS011;62601;51.044;13.788;2022-11-20T10:30:12;18.67;;;10.77;;
74245;SDS011;62601;51.044;13.788;2022-11-20T10:32:36;16.20;;;9.88;;
74245;SDS011;62601;51.044;13.788;2022-11-20T10:35:14;17.63;;;10.73;;
74245;SDS011;62601;51.044;13.788;2022-11-20T10:37:37;20.27;;;10.90;;
74245;SDS011;62601;51.044;13.788;2022-11-20T10:42:46;16.65;;;9.95;;
74245;SDS011;62601;51.044;13.788;2022-11-20T10:45:31;16.42;;;10.13;;
74245;SDS011;62601;51.044;13.788;2022-11-20T10:47:54;17.63;;;11.07;;
74245;SDS011;62601;51.044;13.788;2022-11-20T10:50:18;16.88;;;10.65;;
74245;SDS011;62601;51.044;13.788;2022-11-20T10:58:00;17.23;;;9.85;;
74245;SDS011;62601;51.044;13.788;2022-11-20T11:00:22;16.45;;;10.45;;
74245;SDS011;62601;51.044;13.788;2022-11-20T11:02:49;16.83;;;9.32;;
74245;SDS011;62601;51.044;13.788;2022-11-20T11:05:12;18.05;;;10.55;;
74245;SDS011;62601;51.044;13.788;2022-11-20T11:07:37;18.13;;;10.55;;
74245;SDS011;62601;51.044;13.788;2022-11-20T11:10:05;23.40;;;12.32;;
74245;SDS011;62601;51.044;13.788;2022-11-20T11:12:44;16.20;;;10.48;;
74245;SDS011;62601;51.044;13.788;2022-11-20T11:15:11;17.83;;;9.90;;
74245;SDS011;62601;51.044;13.788;2022-11-20T11:17:33;16.20;;;9.95;;
74245;SDS011;62601;51.044;13.788;2022-11-20T11:22:34;16.42;;;9.82;;
74245;SDS011;62601;51.044;13.788;2022-11-20T11:24:55;14.60;;;9.52;;
74245;SDS011;62601;51.044;13.788;2022-11-20T11:27:17;16.17;;;9.13;;
74245;SDS011;62601;51.044;13.788;2022-11-20T11:29:38;17.98;;;9.30;;
74245;SDS011;62601;51.044;13.788;2022-11-20T11:32:07;15.68;;;10.45;;
74245;SDS011;62601;51.044;13.788;2022-11-20T11:34:28;15.85;;;9.40;;
74245;SDS011;62601;51.044;13.788;2022-11-20T11:36:57;15.25;;;9.20;;
74245;SDS011;62601;51.044;13.788;2022-11-20T11:39:19;13.48;;;8.15;;
74245;SDS011;62601;51.044;13.788;2022-11-20T11:41:43;14.40;;;7.38;;
74245;SDS011;62601;51.044;13.788;2022-11-20T11:44:20;14.27;;;8.50;;
74245;SDS011;62601;51.044;13.788;2022-11-20T11:46:49;12.05;;;7.40;;
74245;SDS011;62601;51.044;13.788;2022-11-20T11:49:17;11.98;;;7.07;;
74245;SDS011;62601;51.044;13.788;2022-11-20T11:51:56;13.10;;;7.68;;
74245;SDS011;62601;51.044;13.788;2022-11-20T11:57:00;15.40;;;8.13;;
74245;SDS011;62601;51.044;13.788;2022-11-20T11:59:46;11.15;;;7.30;;
74245;SDS011;62601;51.044;13.788;2022-11-20T12:02:10;12.02;;;7.53;;
74245;SDS011;62601;51.044;13.788;2022-11-20T12:04:50;11.30;;;6.95;;
74245;SDS011;62601;51.044;13.788;2022-11-20T12:09:52;11.82;;;6.82;;
74245;SDS011;62601;51.044;13.788;2022-11-20T12:12:20;9.98;;;6.20;;
74245;SDS011;62601;51.044;13.788;2022-11-20T12:14:43;10.40;;;6.50;;
74245;SDS011;62601;51.044;13.788;2022-11-20T12:17:04;9.98;;;6.30;;
74245;SDS011;62601;51.044;13.788;2022-11-20T12:19:25;10.77;;;7.32;;
74245;SDS011;62601;51.044;13.788;2022-11-20T12:21:49;11.98;;;7.10;;
74245;SDS011;62601;51.044;13.788;2022-11-20T12:24:20;13.70;;;7.03;;
74245;SDS011;62601;51.044;13.788;2022-11-20T12:26:48;14.32;;;7.80;;
74245;SDS011;62601;51.044;13.788;2022-11-20T12:36:40;9.65;;;6.25;;
74245;SDS011;62601;51.044;13.788;2022-11-20T12:46:44;12.07;;;7.20;;
74245;SDS011;62601;51.044;13.788;2022-11-20T12:51:39;12.50;;;7.32;;
74245;SDS011;62601;51.044;13.788;2022-11-20T13:01:52;12.85;;;7.60;;
74245;SDS011;62601;51.044;13.788;2022-11-20T13:06:57;10.02;;;7.05;;
74245;SDS011;62601;51.044;13.788;2022-11-20T13:09:23;10.43;;;7.30;;
74245;SDS011;62601;51.044;13.788;2022-11-20T13:19:26;10.15;;;6.60;;
74245;SDS011;62601;51.044;13.788;2022-11-20T13:21:49;9.98;;;6.43;;
74245;SDS011;62601;51.044;13.788;2022-11-20T13:24:23;12.85;;;7.78;;
74245;SDS011;62601;51.044;13.788;2022-11-20T13:26:44;11.38;;;7.78;;
74245;SDS011;62601;51.044;13.788;2022-11-20T13:29:29;11.75;;;7.78;;
74245;SDS011;62601;51.044;13.788;2022-11-20T13:31:51;12.55;;;7.90;;
74245;SDS011;62601;51.044;13.788;2022-11-20T13:34:27;16.13;;;8.27;;
74245;SDS011;62601;51.044;13.788;2022-11-20T13:36:52;13.05;;;7.50;;
74245;SDS011;62601;51.044;13.788;2022-11-20T13:39:23;12.13;;;6.85;;
74245;SDS011;62601;51.044;13.788;2022-11-20T13:41:53;12.00;;;6.35;;
74245;SDS011;62601;51.044;13.788;2022-11-20T13:46:53;10.38;;;6.78;;
74245;SDS011;62601;51.044;13.788;2022-11-20T13:49:27;10.77;;;6.45;;
74245;SDS011;62601;51.044;13.788;2022-11-20T13:51:50;10.40;;;6.55;;
74245;SDS011;62601;51.044;13.788;2022-11-20T14:01:56;8.75;;;5.93;;
74245;SDS011;62601;51.044;13.788;2022-11-20T14:04:20;9.35;;;5.80;;
74245;SDS011;62601;51.044;13.788;2022-11-20T14:06:45;9.45;;;6.07;;
74245;SDS011;62601;51.044;13.788;2022-11-20T14:09:29;8.60;;;6.03;;
74245;SDS011;62601;51.044;13.788;2022-11-20T14:11:50;9.35;;;5.55;;
74245;SDS011;62601;51.044;13.788;2022-11-20T14:14:18;8.48;;;6.05;;
74245;SDS011;62601;51.044;13.788;2022-11-20T14:16:40;7.82;;;6.10;;
74245;SDS011;62601;51.044;13.788;2022-11-20T14:21:39;7.57;;;5.68;;
74245;SDS011;62601;51.044;13.788;2022-11-20T14:24:04;8.95;;;5.82;;
74245;SDS011;62601;51.044;13.788;2022-11-20T14:26:26;8.15;;;5.85;;
74245;SDS011;62601;51.044;13.788;2022-11-20T14:28:50;8.80;;;6.50;;
74245;SDS011;62601;51.044;13.788;2022-11-20T14:31:16;8.77;;;6.22;;
74245;SDS011;62601;51.044;13.788;2022-11-20T14:33:38;9.98;;;5.80;;
74245;SDS011;62601;51.044;13.788;2022-11-20T14:35:59;10.68;;;6.40;;
74245;SDS011;62601;51.044;13.788;2022-11-20T14:38:22;10.10;;;6.60;;
74245;SDS011;62601;51.044;13.788;2022-11-20T14:40:43;9.93;;;5.97;;
74245;SDS011;62601;51.044;13.788;2022-11-20T14:43:16;9.05;;;5.63;;
74245;SDS011;62601;51.044;13.788;2022-11-20T14:45:38;10.18;;;6.35;;
74245;SDS011;62601;51.044;13.788;2022-11-20T14:47:59;12.63;;;7.45;;
74245;SDS011;62601;51.044;13.788;2022-11-20T14:50:24;9.00;;;5.70;;
74245;SDS011;62601;51.044;13.788;2022-11-20T14:52:52;9.40;;;6.60;;
74245;SDS011;62601;51.044;13.788;2022-11-20T14:55:13;7.63;;;6.20;;
74245;SDS011;62601;51.044;13.788;2022-11-20T14:57:34;13.73;;;8.68;;
74245;SDS011;62601;51.044;13.788;2022-11-20T15:00:18;11.43;;;7.18;;
74245;SDS011;62601;51.044;13.788;2022-11-20T15:02:43;9.50;;;6.28;;
74245;SDS011;62601;51.044;13.788;2022-11-20T15:05:04;11.57;;;7.57;;
74245;SDS011;62601;51.044;13.788;2022-11-20T15:07:29;10.95;;;6.70;;
74245;SDS011;62601;51.044;13.788;2022-11-20T15:10:07;10.50;;;6.32;;
74245;SDS011;62601;51.044;13.788;2022-11-20T15:12:30;15.02;;;6.93;;
74245;SDS011;62601;51.044;13.788;2022-11-20T15:14:51;12.32;;;7.82;;
74245;SDS011;62601;51.044;13.788;2022-11-20T15:17:13;10.88;;;7.63;;
74245;SDS011;62601;51.044;13.788;2022-11-20T15:19:34;13.00;;;7.05;;
74245;SDS011;62601;51.044;13.788;2022-11-20T15:21:56;10.73;;;7.65;;
74245;SDS011;62601;51.044;13.788;2022-11-20T15:24:18;12.20;;;7.03;;
74245;SDS011;62601;51.044;13.788;2022-11-20T15:26:39;11.40;;;7.03;;